CDT,Max TemperatureF,Mean TemperatureF,Min TemperatureF,Max Dew PointF,MeanDew PointF,Min DewpointF,Max Humidity, Mean Humidity, Min Humidity, Max Sea Level PressureIn, Mean Sea Level PressureIn, Min Sea Level PressureIn, Max VisibilityMiles, Mean VisibilityMiles, Min VisibilityMiles, Max Wind SpeedMPH, Mean Wind SpeedMPH, Max Gust SpeedMPH,PrecipitationIn, CloudCover, Events, WindDirDegrees
2013-3-1,25,17,9,18,15,6,88,78,68,30.45,30.37,30.23,10,10,8,14,8,18,T,4,,9
2013-3-2,29,18,6,20,14,3,91,80,68,30.42,30.28,30.09,10,10,9,14,6,17,0.00,3,,152
2013-3-3,34,27,20,27,23,16,91,82,72,30.08,29.89,29.74,10,9,6,22,12,28,T,5,Rain,130
2013-3-4,34,30,26,28,25,19,92,81,69,30.01,29.85,29.70,10,8,1,23,8,31,0.01,7,Snow,152
2013-3-5,27,24,20,22,19,14,88,79,65,30.44,30.16,29.92,10,7,0,32,18,40,0.02,8,Snow,323
2013-3-6,26,21,15,19,16,12,91,83,73,30.49,30.39,30.25,10,10,5,15,8,18,T,6,Snow,81
2013-3-7,37,28,18,29,22,16,96,81,62,30.32,30.22,30.14,10,10,10,22,13,28,0.00,3,,134
2013-3-8,43,34,24,35,30,22,97,85,64,30.24,30.11,29.93,10,6,2,18,9,23,0.08,4,Rain,110
2013-3-9,38,34,30,37,33,27,100,94,79,29.91,29.77,29.63,10,4,0,28,10,36,0.68,8,Fog-Rain-Snow,44
2013-3-10,31,26,20,27,19,15,88,81,74,30.08,30.01,29.87,10,10,7,30,21,39,T,8,Snow,357
2013-3-11,31,22,13,22,16,9,88,76,63,30.02,29.96,29.89,10,10,10,20,8,26,0.00,4,,316
2013-3-12,29,24,18,25,19,13,84,76,68,30.37,30.16,29.94,10,9,2,31,20,41,T,6,Snow,315
2013-3-13,37,25,13,23,16,11,92,70,47,30.45,30.36,30.20,10,10,10,18,7,23,0.00,2,,226
2013-3-14,53,40,27,41,31,22,100,81,61,30.17,30.10,30.02,10,10,10,17,5,23,T,2,,275
2013-3-15,39,35,30,35,33,30,96,88,79,30.00,29.89,29.80,10,6,2,20,9,31,0.00,7,,28
2013-3-16,30,24,18,28,17,11,92,78,63,30.28,30.15,29.93,10,10,7,20,12,28,0.00,5,,359
2013-3-17,34,24,14,30,20,9,89,73,57,30.26,29.92,29.64,10,8,1,30,16,36,0.03,7,Rain-Snow,133
2013-3-18,34,23,12,32,14,6,96,79,62,30.09,29.85,29.65,10,8,2,28,18,43,0.03,6,Snow,300
2013-3-19,30,18,6,16,8,1,80,65,50,30.41,30.26,30.12,10,10,9,25,10,31,T,3,Snow,333
2013-3-20,26,17,7,9,5,2,80,61,42,30.45,30.35,30.19,10,10,10,20,11,25,0.00,0,,339
2013-3-21,35,22,8,18,9,3,81,60,38,30.19,30.09,30.00,10,10,10,12,8,81,0.00,0,,102
2013-3-22,33,25,16,21,17,13,92,75,58,30.11,30.07,30.04,10,10,9,10,5,,0.00,5,,109
2013-3-23,32,29,26,23,22,19,81,75,69,30.20,30.16,30.11,10,9,2,18,8,23,T,8,Snow,14
2013-3-24,29,24,19,23,19,15,88,78,57,30.19,30.13,30.03,10,6,1,21,14,26,0.01,8,Snow,344
2013-3-25,28,22,16,19,17,10,93,78,51,30.39,30.25,30.12,10,7,2,23,14,28,0.02,8,Snow,340
2013-3-26,37,23,9,21,14,5,92,70,47,30.41,30.35,30.23,10,10,10,14,5,21,0.00,2,,227
2013-3-27,49,37,24,28,24,20,85,62,39,30.30,30.27,30.22,10,10,10,18,11,28,0.00,0,,129
2013-3-28,58,42,25,34,29,23,92,64,36,30.27,30.23,30.18,10,9,7,16,8,22,0.00,1,,160
2013-3-29,66,46,26,40,34,26,92,63,34,30.23,30.13,29.98,10,9,4,22,11,31,T,1,,164
2013-3-30,61,48,34,45,40,35,100,73,46,29.99,29.95,29.92,10,7,0,23,12,32,0.00,3,Fog,314
2013-3-31,43,33,22,34,26,13,100,73,46,30.24,30.04,29.93,10,7,0,23,14,29,T,5,Fog-Snow,329